createdAt,value
2022-09-30T00:00:56.299Z,20.80
2022-09-30T00:03:24.192Z,21.42
2022-09-30T00:06:07.916Z,23.00
2022-09-30T00:08:36.234Z,23.02
2022-09-30T00:11:13.267Z,27.15
2022-09-30T00:13:40.738Z,27.92
2022-09-30T00:16:09.357Z,24.83
2022-09-30T00:18:36.942Z,25.05
2022-09-30T00:21:04.437Z,20.25
2022-09-30T00:23:31.458Z,19.75
2022-09-30T00:26:04.376Z,22.88
2022-09-30T00:28:31.563Z,21.45
2022-09-30T00:31:05.393Z,22.48
2022-09-30T00:33:32.671Z,19.63
2022-09-30T00:35:59.522Z,19.20
2022-09-30T00:38:26.456Z,28.95
2022-09-30T00:40:53.075Z,41.78
2022-09-30T00:43:40.896Z,53.33
2022-09-30T00:46:27.888Z,46.35
2022-09-30T00:48:55.794Z,42.20
2022-09-30T00:51:30.362Z,58.83
2022-09-30T00:54:09.253Z,45.35
2022-09-30T00:56:44.102Z,39.08
2022-09-30T00:59:18.450Z,53.35
2022-09-30T01:01:45.353Z,49.10
2022-09-30T01:04:15.686Z,48.53
2022-09-30T01:06:42.940Z,45.72
2022-09-30T01:09:11.038Z,37.08
2022-09-30T01:11:37.827Z,41.67
2022-09-30T01:14:14.710Z,40.17
2022-09-30T01:16:50.329Z,40.05
2022-09-30T01:19:35.653Z,31.30
2022-09-30T01:22:27.090Z,36.03
2022-09-30T01:25:17.899Z,28.98
2022-09-30T01:27:50.532Z,32.63
2022-09-30T01:30:45.810Z,28.25
2022-09-30T01:33:32.693Z,28.40
2022-09-30T01:35:59.301Z,26.88
2022-09-30T01:38:41.331Z,28.05
2022-09-30T01:41:22.581Z,35.47
2022-09-30T01:44:01.255Z,33.10
2022-09-30T01:46:44.272Z,25.17
2022-09-30T01:49:25.721Z,24.17
2022-09-30T01:52:16.211Z,22.75
2022-09-30T01:54:48.559Z,25.35
2022-09-30T01:57:34.492Z,24.95
2022-09-30T02:00:07.903Z,25.02
2022-09-30T02:02:42.542Z,27.10
2022-09-30T02:05:16.043Z,25.52
2022-09-30T02:07:54.607Z,26.73
2022-09-30T02:10:35.363Z,24.08
2022-09-30T02:13:14.358Z,23.92
2022-09-30T02:15:48.532Z,26.08
2022-09-30T02:18:27.285Z,37.33
2022-09-30T02:20:59.518Z,25.90
2022-09-30T02:23:29.539Z,42.80
2022-09-30T02:26:06.024Z,34.28
2022-09-30T02:28:36.527Z,27.77
2022-09-30T02:31:06.120Z,28.30
2022-09-30T02:33:38.198Z,27.85
2022-09-30T02:36:22.129Z,27.85
2022-09-30T02:38:55.584Z,28.90
2022-09-30T02:41:26.480Z,27.83
2022-09-30T02:43:55.107Z,27.25
2022-09-30T02:46:40.429Z,28.33
2022-09-30T02:49:30.003Z,28.92
2022-09-30T02:52:13.430Z,32.55
2022-09-30T02:54:40.034Z,28.73
2022-09-30T02:57:27.886Z,42.88
2022-09-30T02:59:54.576Z,31.75
2022-09-30T03:02:21.963Z,31.42
2022-09-30T03:04:50.273Z,26.25
2022-09-30T03:07:17.461Z,32.45
2022-09-30T03:09:44.215Z,30.67
2022-09-30T03:12:24.157Z,30.95
2022-09-30T03:15:02.906Z,30.38
2022-09-30T03:17:47.478Z,32.33
2022-09-30T03:20:27.488Z,32.42
2022-09-30T03:23:02.647Z,26.63
2022-09-30T03:25:45.983Z,27.27
2022-09-30T03:28:24.605Z,28.27
2022-09-30T03:31:18.787Z,21.63
2022-09-30T03:34:17.844Z,27.77
2022-09-30T03:36:56.898Z,25.25
2022-09-30T03:39:29.067Z,47.90
2022-09-30T03:45:02.537Z,23.40
2022-09-30T03:47:33.802Z,23.23
2022-09-30T03:50:04.581Z,23.60
2022-09-30T03:52:33.591Z,21.50
2022-09-30T03:55:04.411Z,23.55
2022-09-30T03:57:31.481Z,22.73
2022-09-30T03:59:58.973Z,26.70
2022-09-30T04:02:26.913Z,25.52
2022-09-30T04:04:53.643Z,25.98
2022-09-30T04:07:21.030Z,30.17
2022-09-30T04:09:47.884Z,19.20
2022-09-30T04:12:14.585Z,18.35
2022-09-30T04:14:41.144Z,27.48
2022-09-30T04:17:08.043Z,22.38
2022-09-30T04:19:38.378Z,24.77
2022-09-30T04:22:05.011Z,28.80
2022-09-30T04:24:31.658Z,25.88
2022-09-30T04:26:58.420Z,18.13
2022-09-30T04:29:25.425Z,23.10
2022-09-30T04:31:52.096Z,18.17
2022-09-30T04:34:19.001Z,14.02
2022-09-30T04:36:45.677Z,16.48
2022-09-30T04:39:12.562Z,23.85
2022-09-30T04:41:39.265Z,14.52
2022-09-30T04:44:06.451Z,19.88
2022-09-30T04:46:34.549Z,20.77
2022-09-30T04:49:03.729Z,28.00
2022-09-30T04:51:32.612Z,29.75
2022-09-30T04:53:59.975Z,19.35
2022-09-30T04:56:26.953Z,19.10
2022-09-30T04:58:54.584Z,21.02
2022-09-30T05:01:22.184Z,19.85
2022-09-30T05:03:49.086Z,24.13
2022-09-30T05:06:15.983Z,22.58
2022-09-30T05:08:46.450Z,16.95
2022-09-30T05:11:19.053Z,34.97
2022-09-30T05:13:46.629Z,35.90
2022-09-30T05:16:14.881Z,35.25
2022-09-30T05:18:45.597Z,19.15
2022-09-30T05:21:15.240Z,14.95
2022-09-30T05:23:41.902Z,14.57
2022-09-30T05:26:11.991Z,15.93
2022-09-30T05:28:39.630Z,16.55
2022-09-30T05:31:06.634Z,24.50
2022-09-30T05:33:34.146Z,23.33
2022-09-30T05:36:06.922Z,24.92
2022-09-30T05:38:33.917Z,28.38
2022-09-30T05:41:08.520Z,26.08
2022-09-30T05:43:37.396Z,29.55
2022-09-30T05:46:04.355Z,21.73
2022-09-30T05:48:31.112Z,20.15
2022-09-30T05:51:01.666Z,22.70
2022-09-30T05:53:30.228Z,27.27
2022-09-30T05:55:56.910Z,20.88
2022-09-30T05:58:24.540Z,27.80
2022-09-30T06:00:51.269Z,27.70
2022-09-30T06:03:18.368Z,20.98
2022-09-30T06:05:45.976Z,17.92
2022-09-30T06:08:13.814Z,19.77
2022-09-30T06:10:42.386Z,21.20
2022-09-30T06:13:09.304Z,25.95
2022-09-30T06:15:39.790Z,23.17
2022-09-30T06:18:06.998Z,26.48
2022-09-30T06:20:34.165Z,25.92
2022-09-30T06:23:01.563Z,31.95
2022-09-30T06:25:29.664Z,43.15
2022-09-30T06:27:56.579Z,53.33
2022-09-30T06:30:23.229Z,40.38
2022-09-30T06:32:49.941Z,35.42
2022-09-30T06:35:17.002Z,38.83
2022-09-30T06:37:45.108Z,38.63
2022-09-30T06:40:11.999Z,33.45
2022-09-30T06:42:38.603Z,37.88
2022-09-30T06:45:05.648Z,39.58
2022-09-30T06:47:33.399Z,35.40
2022-09-30T06:50:03.095Z,31.50
2022-09-30T06:52:30.014Z,32.55
2022-09-30T06:54:56.879Z,40.00
2022-09-30T06:57:26.689Z,37.40
2022-09-30T06:59:54.538Z,32.15
2022-09-30T07:02:22.084Z,36.13
2022-09-30T07:04:49.019Z,34.88
2022-09-30T07:07:15.746Z,30.77
2022-09-30T07:09:43.439Z,31.90
2022-09-30T07:12:10.464Z,28.70
2022-09-30T07:14:37.365Z,33.17
2022-09-30T07:17:05.564Z,29.42
2022-09-30T07:19:35.129Z,29.42
2022-09-30T07:22:22.270Z,30.95
2022-09-30T07:24:49.080Z,29.70
2022-09-30T07:27:15.994Z,32.63
2022-09-30T07:30:07.577Z,29.55
2022-09-30T07:32:30.846Z,31.08
2022-09-30T07:34:57.574Z,34.75
2022-09-30T07:37:26.428Z,36.88
2022-09-30T07:39:53.753Z,35.40
2022-09-30T07:42:22.882Z,36.47
2022-09-30T07:44:53.025Z,36.75
2022-09-30T07:47:20.535Z,36.58
2022-09-30T07:49:47.454Z,37.88
2022-09-30T07:52:15.103Z,38.80
2022-09-30T07:54:48.091Z,36.10
2022-09-30T07:57:17.392Z,34.92
2022-09-30T07:59:44.182Z,35.15
2022-09-30T08:02:18.740Z,32.78
2022-09-30T08:04:45.750Z,31.63
2022-09-30T08:07:15.032Z,32.00
2022-09-30T08:09:41.958Z,30.63
2022-09-30T08:12:09.346Z,27.27
2022-09-30T08:14:35.929Z,26.67
2022-09-30T08:17:02.601Z,27.08
2022-09-30T08:19:31.016Z,23.95
2022-09-30T08:21:58.255Z,27.02
2022-09-30T08:24:26.613Z,28.65
2022-09-30T08:26:54.157Z,27.85
2022-09-30T08:29:36.074Z,30.40
2022-09-30T08:32:07.966Z,25.75
2022-09-30T08:34:35.789Z,23.73
2022-09-30T08:37:07.770Z,26.52
2022-09-30T08:39:35.817Z,23.38
2022-09-30T08:42:32.364Z,24.73
2022-09-30T08:45:10.633Z,23.83
2022-09-30T08:47:53.464Z,21.00
2022-09-30T08:50:50.053Z,20.05
2022-09-30T08:53:42.066Z,18.10
2022-09-30T08:56:12.890Z,18.00
2022-09-30T08:58:44.415Z,17.50
2022-09-30T09:01:24.081Z,16.30
2022-09-30T09:03:50.793Z,16.65
2022-09-30T09:06:45.208Z,16.33
2022-09-30T09:09:39.279Z,14.45
2022-09-30T09:12:29.091Z,15.10
2022-09-30T09:15:17.975Z,14.45
2022-09-30T09:18:18.286Z,14.63
2022-09-30T09:20:53.430Z,14.40
2022-09-30T09:23:20.804Z,13.18
2022-09-30T09:25:53.043Z,11.07
2022-09-30T09:28:33.778Z,11.95
2022-09-30T09:31:01.591Z,11.68
2022-09-30T09:33:35.353Z,11.38
2022-09-30T09:36:26.764Z,11.95
2022-09-30T09:39:05.824Z,10.70
2022-09-30T09:42:02.056Z,9.35
2022-09-30T09:44:54.485Z,7.90
2022-09-30T09:47:21.517Z,9.15
2022-09-30T09:50:19.594Z,8.43
2022-09-30T09:53:05.182Z,7.40
2022-09-30T09:55:31.911Z,8.88
2022-09-30T09:58:19.712Z,7.97
2022-09-30T10:00:46.448Z,7.40
2022-09-30T10:03:21.757Z,7.05
2022-09-30T10:06:12.970Z,2.58
2022-09-30T10:08:53.336Z,2.20
2022-09-30T10:11:27.536Z,1.95
2022-09-30T10:13:59.681Z,2.83
2022-09-30T10:16:37.694Z,2.00
2022-09-30T10:19:17.058Z,1.80
2022-09-30T10:21:43.754Z,1.95
2022-09-30T10:24:30.974Z,1.90
2022-09-30T10:26:58.305Z,1.80
2022-09-30T10:29:33.394Z,2.47
2022-09-30T10:32:02.480Z,1.70
2022-09-30T10:34:36.510Z,2.00
2022-09-30T10:37:10.068Z,2.08
2022-09-30T10:39:38.762Z,1.92
2022-09-30T10:42:09.881Z,2.28
2022-09-30T10:44:47.082Z,2.30
2022-09-30T10:47:19.613Z,1.80
2022-09-30T10:49:51.748Z,1.77
2022-09-30T10:52:24.872Z,2.42
2022-09-30T10:54:54.797Z,1.60
2022-09-30T10:57:26.411Z,1.60
2022-09-30T11:00:04.652Z,1.90
2022-09-30T11:02:38.168Z,1.25
2022-09-30T11:05:13.519Z,1.50
2022-09-30T11:07:46.170Z,1.55
2022-09-30T11:10:34.334Z,1.55
2022-09-30T11:13:10.739Z,1.40
2022-09-30T11:15:48.496Z,1.38
2022-09-30T11:18:23.803Z,1.00
2022-09-30T11:21:05.997Z,1.30
2022-09-30T11:23:53.512Z,1.10
2022-09-30T11:26:34.839Z,1.45
2022-09-30T11:29:11.982Z,1.58
2022-09-30T11:32:00.410Z,1.10
2022-09-30T11:34:43.346Z,1.48
2022-09-30T11:37:40.745Z,1.10
2022-09-30T11:40:10.246Z,1.50
2022-09-30T11:42:55.365Z,1.25
2022-09-30T11:46:00.740Z,1.35
2022-09-30T11:48:41.399Z,1.60
2022-09-30T11:51:39.254Z,1.50
2022-09-30T11:54:27.026Z,1.42
2022-09-30T11:57:04.510Z,1.75
2022-09-30T11:59:48.681Z,1.35
2022-09-30T12:02:40.732Z,1.20
2022-09-30T12:05:19.453Z,1.40
2022-09-30T12:08:03.218Z,1.20
2022-09-30T12:10:34.328Z,1.17
2022-09-30T12:13:08.958Z,1.63
2022-09-30T12:15:36.628Z,1.17
2022-09-30T12:18:14.067Z,0.90
2022-09-30T12:21:00.732Z,1.10
2022-09-30T12:23:36.032Z,1.17
2022-09-30T12:26:04.501Z,1.27
2022-09-30T12:29:08.021Z,1.05
2022-09-30T12:32:28.590Z,1.00
2022-09-30T12:35:10.254Z,0.98
2022-09-30T12:37:53.787Z,1.15
2022-09-30T12:40:41.178Z,1.30
2022-09-30T12:43:25.921Z,1.27
2022-09-30T12:46:15.860Z,1.35
2022-09-30T12:48:45.137Z,1.20
2022-09-30T12:51:31.313Z,1.40
2022-09-30T12:54:13.544Z,1.25
2022-09-30T12:56:44.161Z,1.25
2022-09-30T12:59:11.597Z,1.63
2022-09-30T13:01:39.730Z,1.17
2022-09-30T13:04:06.304Z,1.50
2022-09-30T13:06:48.005Z,1.27
2022-09-30T13:09:17.292Z,1.08
2022-09-30T13:11:46.065Z,1.20
2022-09-30T13:14:32.872Z,0.90
2022-09-30T13:17:08.979Z,1.13
2022-09-30T13:19:36.467Z,1.98
2022-09-30T13:22:18.042Z,1.40
2022-09-30T13:25:12.282Z,1.40
2022-09-30T13:27:38.768Z,1.10
2022-09-30T13:30:17.515Z,1.55
2022-09-30T13:32:57.684Z,1.30
2022-09-30T13:35:49.547Z,1.35
2022-09-30T13:38:18.517Z,1.05
2022-09-30T13:41:02.975Z,1.63
2022-09-30T13:43:51.058Z,1.00
2022-09-30T13:46:49.128Z,1.05
2022-09-30T13:49:46.957Z,1.20
2022-09-30T13:52:27.538Z,1.20
2022-09-30T13:54:58.592Z,1.20
2022-09-30T13:57:45.309Z,1.10
2022-09-30T14:00:18.371Z,1.30
2022-09-30T14:02:53.779Z,1.27
2022-09-30T14:05:42.502Z,1.25
2022-09-30T14:08:12.419Z,1.13
2022-09-30T14:11:08.149Z,1.00
2022-09-30T14:13:50.934Z,1.00
2022-09-30T14:16:57.037Z,0.93
2022-09-30T14:19:58.377Z,1.40
2022-09-30T14:22:30.204Z,1.57
2022-09-30T14:24:57.973Z,1.85
2022-09-30T14:27:40.243Z,1.10
2022-09-30T14:30:21.941Z,1.38
2022-09-30T14:33:01.912Z,1.17
2022-09-30T14:35:30.495Z,1.38
2022-09-30T14:38:02.059Z,1.30
2022-09-30T14:40:31.441Z,1.90
2022-09-30T14:43:03.218Z,1.05
2022-09-30T14:48:06.355Z,1.67
2022-09-30T14:50:47.418Z,1.27
2022-09-30T14:53:30.245Z,1.13
2022-09-30T14:55:58.185Z,1.02
2022-09-30T14:58:30.636Z,1.30
2022-09-30T15:01:04.102Z,1.20
2022-09-30T15:03:34.922Z,1.10
2022-09-30T15:06:01.666Z,1.43
2022-09-30T15:08:28.810Z,1.92
2022-09-30T15:10:57.019Z,1.70
2022-09-30T15:13:31.872Z,1.10
2022-09-30T15:15:59.358Z,1.25
2022-09-30T15:18:36.429Z,1.10
2022-09-30T15:21:14.685Z,2.00
2022-09-30T15:23:53.992Z,1.80
2022-09-30T15:26:23.093Z,1.40
2022-09-30T15:28:50.229Z,1.50
2022-09-30T15:31:30.427Z,2.13
2022-09-30T15:34:12.864Z,1.77
2022-09-30T15:36:39.746Z,1.65
2022-09-30T15:39:17.630Z,1.75
2022-09-30T15:41:46.772Z,2.13
2022-09-30T15:44:19.440Z,1.10
2022-09-30T15:47:04.513Z,1.38
2022-09-30T15:49:40.954Z,1.25
2022-09-30T15:52:21.062Z,1.73
2022-09-30T15:54:48.141Z,2.10
2022-09-30T15:57:48.026Z,2.25
2022-09-30T16:00:39.300Z,1.90
2022-09-30T16:03:27.343Z,2.40
2022-09-30T16:06:05.858Z,1.83
2022-09-30T16:08:42.905Z,1.48
2022-09-30T16:11:10.047Z,1.33
2022-09-30T16:13:42.949Z,2.03
2022-09-30T16:16:21.807Z,1.45
2022-09-30T16:18:49.892Z,1.52
2022-09-30T16:21:54.668Z,2.30
2022-09-30T16:24:21.230Z,2.17
2022-09-30T16:26:57.769Z,2.05
2022-09-30T16:29:26.196Z,2.78
2022-09-30T16:31:56.489Z,3.03
2022-09-30T16:34:28.304Z,2.30
2022-09-30T16:37:05.779Z,2.58
2022-09-30T16:39:32.388Z,3.33
2022-09-30T16:41:59.452Z,2.53
2022-09-30T16:44:26.040Z,3.00
2022-09-30T16:46:52.801Z,2.05
2022-09-30T16:49:20.237Z,2.65
2022-09-30T16:51:47.090Z,3.03
2022-09-30T16:54:13.727Z,2.42
2022-09-30T16:56:40.452Z,2.20
2022-09-30T16:59:15.137Z,2.35
2022-09-30T17:01:42.619Z,3.50
2022-09-30T17:04:11.935Z,2.88
2022-09-30T17:06:40.807Z,3.03
2022-09-30T17:09:07.373Z,2.80
2022-09-30T17:11:36.113Z,2.95
2022-09-30T17:14:04.940Z,2.70
2022-09-30T17:16:33.131Z,1.98
2022-09-30T17:19:00.277Z,2.60
2022-09-30T17:21:27.336Z,2.47
2022-09-30T17:23:55.516Z,2.50
2022-09-30T17:26:22.320Z,2.70
2022-09-30T17:28:48.993Z,2.28
2022-09-30T17:31:15.701Z,1.83
2022-09-30T17:33:42.607Z,2.05
2022-09-30T17:36:11.677Z,1.70
2022-09-30T17:38:39.141Z,1.83
2022-09-30T17:41:26.277Z,2.17
2022-09-30T17:43:52.836Z,2.13
2022-09-30T17:46:23.192Z,2.75
2022-09-30T17:48:51.270Z,3.00
2022-09-30T17:51:18.189Z,3.58
2022-09-30T17:53:45.439Z,3.40
2022-09-30T17:56:19.355Z,3.88
2022-09-30T17:58:47.921Z,4.05
2022-09-30T18:01:20.627Z,3.08
2022-09-30T18:03:47.864Z,3.60
2022-09-30T18:06:14.699Z,3.75
2022-09-30T18:08:41.514Z,4.57
2022-09-30T18:11:08.242Z,4.30
2022-09-30T18:13:34.937Z,4.30
2022-09-30T18:16:06.398Z,4.22
2022-09-30T18:18:34.857Z,3.78
2022-09-30T18:21:01.575Z,4.70
2022-09-30T18:23:28.181Z,4.10
2022-09-30T18:25:56.304Z,3.72
2022-09-30T18:28:22.988Z,3.42
2022-09-30T18:30:49.660Z,2.92
2022-09-30T18:33:17.496Z,3.85
2022-09-30T18:35:44.432Z,3.58
2022-09-30T18:38:12.866Z,4.38
2022-09-30T18:40:43.326Z,4.30
2022-09-30T18:43:13.393Z,3.88
2022-09-30T18:45:40.792Z,4.55
2022-09-30T18:48:08.433Z,7.03
2022-09-30T18:50:35.342Z,3.60
2022-09-30T18:53:09.549Z,2.83
2022-09-30T18:55:38.318Z,2.35
2022-09-30T18:58:05.100Z,3.80
2022-09-30T19:00:31.988Z,3.03
2022-09-30T19:02:58.669Z,3.47
2022-09-30T19:05:28.338Z,3.03
2022-09-30T19:07:56.087Z,3.63
2022-09-30T19:10:24.520Z,3.30
2022-09-30T19:12:52.052Z,3.20
2022-09-30T19:15:19.176Z,3.40
2022-09-30T19:17:46.595Z,5.72
2022-09-30T19:20:17.789Z,7.13
2022-09-30T19:22:44.501Z,5.38
2022-09-30T19:25:11.918Z,6.82
2022-09-30T19:27:40.958Z,5.88
2022-09-30T19:30:10.266Z,4.47
2022-09-30T19:32:37.070Z,7.65
2022-09-30T19:35:12.068Z,9.30
2022-09-30T19:37:43.442Z,6.07
2022-09-30T19:40:20.413Z,5.68
2022-09-30T19:42:49.579Z,6.63
2022-09-30T19:45:17.022Z,8.18
2022-09-30T19:47:44.532Z,7.28
2022-09-30T19:50:11.166Z,7.55
2022-09-30T19:52:47.877Z,7.07
2022-09-30T19:55:17.855Z,6.65
2022-09-30T19:57:44.711Z,9.30
2022-09-30T20:00:13.054Z,11.18
2022-09-30T20:02:39.846Z,5.93
2022-09-30T20:05:07.080Z,11.52
2022-09-30T20:07:35.225Z,8.90
2022-09-30T20:10:02.287Z,8.27
2022-09-30T20:12:29.299Z,6.00
2022-09-30T20:15:14.468Z,6.97
2022-09-30T20:17:41.108Z,6.93
2022-09-30T20:20:26.804Z,8.13
2022-09-30T20:22:53.421Z,6.82
2022-09-30T20:25:20.398Z,7.55
2022-09-30T20:27:51.971Z,7.20
2022-09-30T20:30:19.783Z,7.85
2022-09-30T20:32:46.423Z,8.18
2022-09-30T20:35:13.141Z,7.25
2022-09-30T20:37:40.914Z,7.80
2022-09-30T20:40:09.623Z,5.90
2022-09-30T20:42:38.354Z,6.63
2022-09-30T20:45:06.564Z,7.00
2022-09-30T20:47:33.258Z,6.53
2022-09-30T20:50:00.138Z,7.00
2022-09-30T20:52:28.791Z,6.35
2022-09-30T20:54:57.230Z,6.15
2022-09-30T20:57:23.794Z,7.30
2022-09-30T20:59:50.456Z,6.35
2022-09-30T21:02:17.171Z,5.72
2022-09-30T21:04:43.751Z,6.22
2022-09-30T21:07:10.328Z,6.88
2022-09-30T21:09:36.912Z,6.80
2022-09-30T21:12:03.832Z,9.45
2022-09-30T21:14:30.433Z,6.70
2022-09-30T21:16:57.027Z,5.65
2022-09-30T21:19:23.727Z,5.43
2022-09-30T21:21:50.322Z,5.75
2022-09-30T21:24:16.955Z,6.00
2022-09-30T21:26:43.500Z,5.65
2022-09-30T21:29:10.099Z,9.27
2022-09-30T21:31:37.821Z,5.50
2022-09-30T21:34:04.694Z,5.80
2022-09-30T21:36:32.269Z,5.05
2022-09-30T21:39:02.548Z,4.95
2022-09-30T21:41:29.755Z,6.60
2022-09-30T21:43:57.326Z,5.57
2022-09-30T21:46:24.147Z,6.40
2022-09-30T21:48:53.758Z,5.47
2022-09-30T21:51:21.074Z,5.30
2022-09-30T21:53:48.762Z,4.32
2022-09-30T21:56:15.423Z,4.63
2022-09-30T21:58:42.058Z,5.53
2022-09-30T22:01:08.660Z,5.20
2022-09-30T22:03:39.563Z,5.70
2022-09-30T22:06:08.219Z,5.35
2022-09-30T22:08:40.251Z,6.32
2022-09-30T22:11:12.296Z,5.32
2022-09-30T22:13:40.840Z,5.38
2022-09-30T22:16:08.512Z,4.93
2022-09-30T22:18:35.728Z,5.18
2022-09-30T22:21:08.176Z,6.65
2022-09-30T22:23:35.061Z,7.00
2022-09-30T22:26:08.657Z,5.68
2022-09-30T22:28:36.898Z,4.57
2022-09-30T22:31:14.395Z,5.78
2022-09-30T22:33:59.546Z,4.88
2022-09-30T22:36:45.028Z,5.63
2022-09-30T22:39:11.835Z,6.97
2022-09-30T22:41:38.543Z,6.10
2022-09-30T22:44:05.976Z,5.22
2022-09-30T22:46:34.118Z,5.80
2022-09-30T22:49:00.735Z,4.68
2022-09-30T22:51:28.935Z,4.70
2022-09-30T22:53:56.203Z,5.53
2022-09-30T22:56:23.536Z,4.97
2022-09-30T22:58:50.215Z,4.80
2022-09-30T23:01:16.967Z,5.28
2022-09-30T23:03:43.719Z,7.28
2022-09-30T23:06:10.591Z,5.78
2022-09-30T23:08:41.810Z,6.22
2022-09-30T23:11:14.523Z,7.70
2022-09-30T23:13:41.689Z,6.38
2022-09-30T23:16:08.549Z,5.35
2022-09-30T23:18:35.289Z,5.40
2022-09-30T23:21:05.051Z,5.72
2022-09-30T23:23:33.341Z,5.43
2022-09-30T23:26:20.239Z,5.43
2022-09-30T23:28:47.383Z,6.10
2022-09-30T23:31:16.586Z,5.63
2022-09-30T23:33:49.566Z,6.28
2022-09-30T23:36:18.444Z,6.25
2022-09-30T23:38:45.988Z,5.97
2022-09-30T23:41:13.836Z,5.88
2022-09-30T23:43:48.253Z,6.75
2022-09-30T23:46:16.712Z,8.35
2022-09-30T23:48:45.860Z,8.57
2022-09-30T23:51:14.155Z,7.03
2022-09-30T23:53:40.870Z,7.28
2022-09-30T23:56:12.578Z,6.82
2022-09-30T23:58:39.638Z,6.70
